createdAt,value
2022-09-20T00:00:27.176Z,-5.24
2022-09-20T00:01:27.329Z,-5.24
2022-09-20T00:02:27.175Z,-5.23
2022-09-20T00:03:27.219Z,-5.23
2022-09-20T00:04:27.181Z,-5.22
2022-09-20T00:05:27.237Z,-5.19
2022-09-20T00:06:27.186Z,-5.19
2022-09-20T00:07:27.224Z,-5.17
2022-09-20T00:08:27.189Z,-5.16
2022-09-20T00:09:32.121Z,-5.15
2022-09-20T00:10:32.228Z,-5.12
2022-09-20T00:11:32.202Z,-5.11
2022-09-20T00:12:32.234Z,-5.10
2022-09-20T00:13:32.224Z,-5.10
2022-09-20T00:14:32.230Z,-5.10
2022-09-20T00:15:32.197Z,-5.09
2022-09-20T00:16:32.351Z,-5.09
2022-09-20T00:17:32.206Z,-5.05
2022-09-20T00:18:32.295Z,-5.04
2022-09-20T00:19:32.608Z,-5.06
2022-09-20T00:20:37.113Z,-5.04
2022-09-20T00:21:37.216Z,-5.03
2022-09-20T00:22:37.190Z,-5.01
2022-09-20T00:23:37.339Z,-5.03
2022-09-20T00:24:37.217Z,-5.03
2022-09-20T00:25:37.229Z,-5.05
2022-09-20T00:26:37.189Z,-5.02
2022-09-20T00:27:37.203Z,-5.02
2022-09-20T00:28:37.177Z,-5.04
2022-09-20T00:29:37.354Z,-5.05
2022-09-20T00:30:37.176Z,-5.04
2022-09-20T00:31:37.307Z,-5.04
2022-09-20T00:32:37.177Z,-5.05
2022-09-20T00:33:37.208Z,-5.09
2022-09-20T00:34:37.168Z,-5.10
2022-09-20T00:35:37.212Z,-5.11
2022-09-20T00:36:37.172Z,-5.12
2022-09-20T00:37:37.204Z,-5.13
2022-09-20T00:38:37.193Z,-5.12
2022-09-20T00:39:37.192Z,-5.12
2022-09-20T00:40:37.344Z,-5.12
2022-09-20T00:41:37.196Z,-5.12
2022-09-20T00:42:37.163Z,-5.12
2022-09-20T00:43:37.187Z,-5.11
2022-09-20T00:44:54.222Z,-5.12
2022-09-20T00:45:42.167Z,-5.12
2022-09-20T00:46:42.317Z,-5.11
2022-09-20T00:47:42.137Z,-5.12
2022-09-20T00:48:42.172Z,-5.11
2022-09-20T00:49:42.153Z,-5.12
2022-09-20T00:50:42.209Z,-5.13
2022-09-20T00:51:42.167Z,-5.15
2022-09-20T00:52:42.198Z,-5.16
2022-09-20T00:53:42.169Z,-5.19
2022-09-20T00:54:42.180Z,-5.23
2022-09-20T00:55:42.161Z,-5.26
2022-09-20T00:56:42.180Z,-5.27
2022-09-20T00:57:42.161Z,-5.28
2022-09-20T00:58:42.216Z,-5.30
2022-09-20T00:59:42.143Z,-5.35
2022-09-20T01:00:42.234Z,-5.37
2022-09-20T01:01:42.369Z,-5.40
2022-09-20T01:02:42.239Z,-5.42
2022-09-20T01:03:42.125Z,-5.46
2022-09-20T01:04:42.181Z,-5.48
2022-09-20T01:05:42.124Z,-5.49
2022-09-20T01:06:42.141Z,-5.53
2022-09-20T01:07:42.121Z,-5.56
2022-09-20T01:08:42.137Z,-5.58
2022-09-20T01:09:42.126Z,-5.61
2022-09-20T01:10:42.147Z,-5.62
2022-09-20T01:11:42.120Z,-5.65
2022-09-20T01:12:42.291Z,-5.65
2022-09-20T01:13:42.130Z,-5.64
2022-09-20T01:14:42.164Z,-5.68
2022-09-20T01:15:42.297Z,-5.68
2022-09-20T01:16:42.248Z,-5.69
2022-09-20T01:17:42.138Z,-5.70
2022-09-20T01:18:42.166Z,-5.69
2022-09-20T01:19:42.139Z,-5.67
2022-09-20T01:20:42.149Z,-5.64
2022-09-20T01:21:42.131Z,-5.64
2022-09-20T01:22:42.143Z,-5.61
2022-09-20T01:23:42.165Z,-5.60
2022-09-20T01:24:42.153Z,-5.59
2022-09-20T01:25:42.167Z,-5.58
2022-09-20T01:26:42.140Z,-5.58
2022-09-20T01:27:42.113Z,-5.58
2022-09-20T01:28:42.144Z,-5.57
2022-09-20T01:29:42.096Z,-5.58
2022-09-20T01:30:42.130Z,-5.58
2022-09-20T01:31:42.172Z,-5.57
2022-09-20T01:32:42.116Z,-5.58
2022-09-20T01:33:42.216Z,-5.55
2022-09-20T01:34:42.221Z,-5.55
2022-09-20T01:35:42.085Z,-5.53
2022-09-20T01:36:42.108Z,-5.52
2022-09-20T01:37:42.068Z,-5.52
2022-09-20T01:38:42.091Z,-5.47
2022-09-20T01:39:42.212Z,-5.46
2022-09-20T01:40:42.130Z,-5.46
2022-09-20T01:41:42.097Z,-5.44
2022-09-20T01:42:42.103Z,-5.44
2022-09-20T01:43:42.085Z,-5.41
2022-09-20T01:44:55.253Z,-5.40
2022-09-20T01:45:42.205Z,-5.39
2022-09-20T01:46:42.099Z,-5.38
2022-09-20T01:47:42.085Z,-5.38
2022-09-20T01:48:42.110Z,-5.38
2022-09-20T01:49:42.093Z,-5.37
2022-09-20T01:50:42.130Z,-5.37
2022-09-20T01:51:42.084Z,-5.33
2022-09-20T01:52:42.094Z,-5.30
2022-09-20T01:53:42.090Z,-5.28
2022-09-20T01:54:42.127Z,-5.26
2022-09-20T01:55:42.201Z,-5.25
2022-09-20T01:56:42.148Z,-5.24
2022-09-20T01:57:42.120Z,-5.23
2022-09-20T01:58:42.150Z,-5.24
2022-09-20T01:59:42.154Z,-5.23
2022-09-20T02:00:42.227Z,-5.23
2022-09-20T02:01:42.147Z,-5.23
2022-09-20T02:02:42.312Z,-5.22
2022-09-20T02:03:42.140Z,-5.17
2022-09-20T02:04:42.159Z,-5.15
2022-09-20T02:05:42.138Z,-5.13
2022-09-20T02:06:42.175Z,-5.13
2022-09-20T02:07:42.156Z,-5.12
2022-09-20T02:08:42.222Z,-5.11
2022-09-20T02:09:42.174Z,-5.08
2022-09-20T02:10:42.193Z,-5.05
2022-09-20T02:11:42.199Z,-5.05
2022-09-20T02:12:42.220Z,-5.04
2022-09-20T02:13:42.376Z,-5.03
2022-09-20T02:14:42.247Z,-5.03
2022-09-20T02:15:42.224Z,-5.02
2022-09-20T02:16:42.467Z,-5.03
2022-09-20T02:17:42.238Z,-5.02
2022-09-20T02:18:42.298Z,-5.00
2022-09-20T02:19:42.278Z,-4.99
2022-09-20T02:20:48.192Z,-4.95
2022-09-20T02:21:48.274Z,-4.95
2022-09-20T02:22:48.314Z,-4.93
2022-09-20T02:23:48.294Z,-4.91
2022-09-20T02:24:48.298Z,-4.89
2022-09-20T02:25:48.297Z,-4.89
2022-09-20T02:26:48.445Z,-4.87
2022-09-20T02:27:48.315Z,-4.85
2022-09-20T02:28:48.309Z,-4.82
2022-09-20T02:29:48.322Z,-4.81
2022-09-20T02:30:48.291Z,-4.78
2022-09-20T02:31:48.407Z,-4.75
2022-09-20T02:32:48.302Z,-4.75
2022-09-20T02:33:48.317Z,-4.71
2022-09-20T02:34:48.293Z,-4.70
2022-09-20T02:35:48.353Z,-4.67
2022-09-20T02:36:48.288Z,-4.66
2022-09-20T02:37:48.436Z,-4.66
2022-09-20T02:38:48.306Z,-4.63
2022-09-20T02:39:48.333Z,-4.63
2022-09-20T02:40:48.315Z,-4.63
2022-09-20T02:41:48.449Z,-4.58
2022-09-20T02:42:48.314Z,-4.59
2022-09-20T02:43:48.335Z,-4.58
2022-09-20T02:44:56.453Z,-4.57
2022-09-20T02:45:48.396Z,-4.55
2022-09-20T02:46:48.323Z,-4.56
2022-09-20T02:47:48.402Z,-4.54
2022-09-20T02:48:48.342Z,-4.54
2022-09-20T02:49:48.345Z,-4.54
2022-09-20T02:50:48.349Z,-4.52
2022-09-20T02:51:48.362Z,-4.53
2022-09-20T02:52:48.360Z,-4.52
2022-09-20T02:53:48.383Z,-4.51
2022-09-20T02:54:48.359Z,-4.51
2022-09-20T02:55:48.391Z,-4.51
2022-09-20T02:56:48.376Z,-4.52
2022-09-20T02:57:48.392Z,-4.53
2022-09-20T02:58:48.538Z,-4.53
2022-09-20T02:59:48.426Z,-4.52
2022-09-20T03:00:48.443Z,-4.53
2022-09-20T03:01:48.484Z,-4.53
2022-09-20T03:02:48.426Z,-4.55
2022-09-20T03:03:48.551Z,-4.53
2022-09-20T03:04:48.467Z,-4.56
2022-09-20T03:05:48.471Z,-4.55
2022-09-20T03:06:48.492Z,-4.57
2022-09-20T03:07:48.516Z,-4.58
2022-09-20T03:08:48.486Z,-4.59
2022-09-20T03:09:48.568Z,-4.63
2022-09-20T03:10:48.525Z,-4.61
2022-09-20T03:11:48.542Z,-4.65
2022-09-20T03:12:48.555Z,-4.66
2022-09-20T03:13:48.564Z,-4.67
2022-09-20T03:14:48.603Z,-4.67
2022-09-20T03:15:48.573Z,-4.71
2022-09-20T03:16:52.112Z,-4.71
2022-09-20T03:17:48.579Z,-4.71
2022-09-20T03:18:48.572Z,-4.73
2022-09-20T03:21:42.590Z,-4.74
2022-09-20T03:22:42.589Z,-4.80
2022-09-20T03:23:42.630Z,-4.82
2022-09-20T03:24:42.590Z,-4.82
2022-09-20T03:25:42.636Z,-4.81
2022-09-20T03:26:42.626Z,-4.83
2022-09-20T03:27:42.636Z,-4.85
2022-09-20T03:28:42.623Z,-4.86
2022-09-20T03:29:42.647Z,-4.85
2022-09-20T03:30:42.652Z,-4.83
2022-09-20T03:31:42.875Z,-4.83
2022-09-20T03:32:42.662Z,-4.83
2022-09-20T03:33:42.691Z,-4.82
2022-09-20T03:34:42.675Z,-4.80
2022-09-20T03:35:42.690Z,-4.78
2022-09-20T03:36:42.677Z,-4.76
2022-09-20T03:37:42.737Z,-4.76
2022-09-20T03:38:42.685Z,-4.74
2022-09-20T03:39:42.715Z,-4.72
2022-09-20T03:40:46.368Z,-4.70
2022-09-20T03:41:42.700Z,-4.67
2022-09-20T03:42:42.683Z,-4.67
2022-09-20T03:43:42.728Z,-4.64
2022-09-20T03:44:56.721Z,-4.61
2022-09-20T03:45:42.754Z,-4.60
2022-09-20T03:46:42.677Z,-4.61
2022-09-20T03:47:42.678Z,-4.57
2022-09-20T03:48:42.659Z,-4.57
2022-09-20T03:49:42.769Z,-4.55
2022-09-20T03:50:42.735Z,-4.56
2022-09-20T03:51:42.680Z,-4.57
2022-09-20T03:52:42.662Z,-4.55
2022-09-20T03:53:42.728Z,-4.57
2022-09-20T03:54:42.680Z,-4.58
2022-09-20T03:55:42.815Z,-4.58
2022-09-20T03:56:42.689Z,-4.60
2022-09-20T03:57:42.741Z,-4.63
2022-09-20T03:58:42.703Z,-4.64
2022-09-20T03:59:42.726Z,-4.66
2022-09-20T04:00:43.230Z,-4.67
2022-09-20T04:01:47.626Z,-4.70
2022-09-20T04:02:47.836Z,-4.71
2022-09-20T04:03:47.751Z,-4.72
2022-09-20T04:04:47.771Z,-4.75
2022-09-20T04:05:47.762Z,-4.78
2022-09-20T04:06:47.771Z,-4.78
2022-09-20T04:07:47.757Z,-4.80
2022-09-20T04:08:47.778Z,-4.83
2022-09-20T04:09:47.771Z,-4.85
2022-09-20T04:10:47.891Z,-4.88
2022-09-20T04:11:47.795Z,-4.88
2022-09-20T04:12:47.844Z,-4.94
2022-09-20T04:13:47.829Z,-4.93
2022-09-20T04:14:47.832Z,-4.95
2022-09-20T04:15:47.819Z,-4.97
2022-09-20T04:16:47.927Z,-4.98
2022-09-20T04:17:47.846Z,-4.96
2022-09-20T04:18:47.848Z,-4.97
2022-09-20T04:19:47.827Z,-4.96
2022-09-20T04:20:47.858Z,-4.94
2022-09-20T04:21:47.835Z,-4.91
2022-09-20T04:22:47.958Z,-4.91
2022-09-20T04:23:47.836Z,-4.89
2022-09-20T04:24:47.857Z,-4.88
2022-09-20T04:25:47.818Z,-4.84
2022-09-20T04:26:47.861Z,-4.83
2022-09-20T04:27:47.843Z,-4.80
2022-09-20T04:28:47.872Z,-4.75
2022-09-20T04:29:47.862Z,-4.74
2022-09-20T04:30:47.901Z,-4.71
2022-09-20T04:31:50.913Z,-4.69
2022-09-20T04:32:47.892Z,-4.67
2022-09-20T04:33:47.875Z,-4.64
2022-09-20T04:34:47.916Z,-4.60
2022-09-20T04:35:47.899Z,-4.57
2022-09-20T04:36:47.939Z,-4.55
2022-09-20T04:37:47.926Z,-4.51
2022-09-20T04:38:47.954Z,-4.50
2022-09-20T04:39:47.953Z,-4.50
2022-09-20T04:40:48.061Z,-4.46
2022-09-20T04:41:47.941Z,-4.46
2022-09-20T04:42:47.964Z,-4.44
2022-09-20T04:43:47.941Z,-4.42
2022-09-20T04:44:47.992Z,-4.40
2022-09-20T04:45:48.026Z,-4.39
2022-09-20T04:46:48.846Z,-4.38
2022-09-20T04:47:47.968Z,-4.36
2022-09-20T04:48:47.987Z,-4.37
2022-09-20T04:49:48.022Z,-4.35
2022-09-20T04:50:48.005Z,-4.36
2022-09-20T04:51:47.983Z,-4.35
2022-09-20T04:52:48.018Z,-4.32
2022-09-20T04:53:48.491Z,-4.34
2022-09-20T04:54:48.198Z,-4.32
2022-09-20T04:55:48.114Z,-4.35
2022-09-20T04:56:48.040Z,-4.35
2022-09-20T04:57:48.045Z,-4.35
2022-09-20T04:58:48.059Z,-4.34
2022-09-20T04:59:48.065Z,-4.34
2022-09-20T05:00:48.313Z,-4.32
2022-09-20T05:01:48.162Z,-4.32
2022-09-20T05:02:48.100Z,-4.32
2022-09-20T05:03:48.088Z,-4.34
2022-09-20T05:04:53.167Z,-4.36
2022-09-20T05:05:53.427Z,-4.35
2022-09-20T05:06:57.995Z,-4.36
2022-09-20T05:07:58.130Z,-4.38
2022-09-20T05:08:58.998Z,-4.40
2022-09-20T05:09:58.137Z,-4.40
2022-09-20T05:10:58.168Z,-4.40
2022-09-20T05:11:58.134Z,-4.42
2022-09-20T05:12:58.135Z,-4.42
2022-09-20T05:13:58.148Z,-4.42
2022-09-20T05:14:58.160Z,-4.43
2022-09-20T05:15:58.267Z,-4.41
2022-09-20T05:16:58.253Z,-4.42
2022-09-20T05:17:58.181Z,-4.42
2022-09-20T05:18:58.171Z,-4.43
2022-09-20T05:19:58.199Z,-4.41
2022-09-20T05:20:58.184Z,-4.42
2022-09-20T05:21:58.257Z,-4.41
2022-09-20T05:22:58.187Z,-4.42
2022-09-20T05:23:58.225Z,-4.39
2022-09-20T05:24:58.221Z,-4.40
2022-09-20T05:25:58.231Z,-4.39
2022-09-20T05:26:58.217Z,-4.38
2022-09-20T05:27:58.294Z,-4.38
2022-09-20T05:28:58.252Z,-4.37
2022-09-20T05:29:59.541Z,-4.36
2022-09-20T05:30:58.258Z,-4.38
2022-09-20T05:31:58.317Z,-4.37
2022-09-20T05:32:58.263Z,-4.36
2022-09-20T05:33:58.337Z,-4.35
2022-09-20T05:34:58.423Z,-4.35
2022-09-20T05:35:58.320Z,-4.36
2022-09-20T05:36:58.317Z,-4.35
2022-09-20T05:37:58.345Z,-4.37
2022-09-20T05:39:00.200Z,-4.36
2022-09-20T05:39:58.438Z,-4.39
2022-09-20T05:40:58.386Z,-4.39
2022-09-20T05:42:02.253Z,-4.38
2022-09-20T05:43:02.370Z,-4.39
2022-09-20T05:44:02.368Z,-4.42
2022-09-20T05:45:02.513Z,-4.41
2022-09-20T05:46:02.424Z,-4.45
2022-09-20T05:47:02.390Z,-4.49
2022-09-20T05:48:02.378Z,-4.50
2022-09-20T05:49:02.417Z,-4.51
2022-09-20T05:50:02.397Z,-4.52
2022-09-20T05:51:03.939Z,-4.54
2022-09-20T05:52:02.410Z,-4.54
2022-09-20T05:53:02.430Z,-4.53
2022-09-20T05:54:02.415Z,-4.54
2022-09-20T05:55:02.482Z,-4.52
2022-09-20T05:56:02.487Z,-4.54
2022-09-20T05:57:02.456Z,-4.54
2022-09-20T05:58:02.430Z,-4.52
2022-09-20T05:59:02.430Z,-4.51
2022-09-20T06:00:02.433Z,-4.52
2022-09-20T06:01:02.521Z,-4.51
2022-09-20T06:02:02.519Z,-4.52
2022-09-20T06:03:02.472Z,-4.51
2022-09-20T06:04:02.429Z,-4.50
2022-09-20T06:05:02.469Z,-4.50
2022-09-20T06:06:02.459Z,-4.49
2022-09-20T06:07:02.632Z,-4.49
2022-09-20T06:08:02.468Z,-4.46
2022-09-20T06:09:02.509Z,-4.44
2022-09-20T06:10:02.522Z,-4.43
2022-09-20T06:11:02.530Z,-4.41
2022-09-20T06:12:02.533Z,-4.38
2022-09-20T06:13:02.688Z,-4.35
2022-09-20T06:14:02.554Z,-4.31
2022-09-20T06:15:02.582Z,-4.28
2022-09-20T06:16:03.038Z,-4.26
2022-09-20T06:17:02.616Z,-4.24
2022-09-20T06:18:02.637Z,-4.22
2022-09-20T06:19:02.781Z,-4.20
2022-09-20T06:20:02.648Z,-4.17
2022-09-20T06:21:02.687Z,-4.15
2022-09-20T06:22:03.868Z,-4.13
2022-09-20T06:23:02.718Z,-4.10
2022-09-20T06:24:02.711Z,-4.07
2022-09-20T06:25:02.863Z,-4.07
2022-09-20T06:26:02.752Z,-4.05
2022-09-20T06:27:02.783Z,-4.01
2022-09-20T06:28:02.856Z,-3.99
2022-09-20T06:29:02.776Z,-3.96
2022-09-20T06:30:02.785Z,-3.96
2022-09-20T06:31:02.890Z,-3.95
2022-09-20T06:32:02.791Z,-3.94
2022-09-20T06:33:02.839Z,-3.93
2022-09-20T06:34:02.823Z,-3.91
2022-09-20T06:35:02.847Z,-3.89
2022-09-20T06:36:02.886Z,-3.90
2022-09-20T06:37:06.775Z,-3.87
2022-09-20T06:38:06.905Z,-3.86
2022-09-20T06:39:06.886Z,-3.84
2022-09-20T06:40:07.023Z,-3.83
2022-09-20T06:41:07.050Z,-3.83
2022-09-20T06:42:06.960Z,-3.82
2022-09-20T06:43:06.948Z,-3.80
2022-09-20T06:44:07.113Z,-3.78
2022-09-20T06:45:06.988Z,-3.77
2022-09-20T06:46:07.057Z,-3.76
2022-09-20T06:47:07.037Z,-3.75
2022-09-20T06:48:07.135Z,-3.72
2022-09-20T06:49:07.083Z,-3.72
2022-09-20T06:50:07.182Z,-3.70
2022-09-20T06:51:07.095Z,-3.68
2022-09-20T06:52:07.111Z,-3.66
2022-09-20T06:53:07.101Z,-3.65
2022-09-20T06:54:07.155Z,-3.61
2022-09-20T06:55:07.125Z,-3.62
2022-09-20T06:56:07.299Z,-3.58
2022-09-20T06:57:07.164Z,-3.58
2022-09-20T06:58:07.324Z,-3.55
2022-09-20T06:59:07.263Z,-3.52
2022-09-20T07:00:07.237Z,-3.49
2022-09-20T07:01:07.283Z,-3.48
2022-09-20T07:02:07.424Z,-3.47
2022-09-20T07:03:07.264Z,-3.45
2022-09-20T07:04:07.278Z,-3.43
2022-09-20T07:05:07.275Z,-3.40
2022-09-20T07:06:07.296Z,-3.36
2022-09-20T07:07:09.414Z,-3.36
2022-09-20T07:08:07.488Z,-3.31
2022-09-20T07:09:07.308Z,-3.27
2022-09-20T07:10:07.342Z,-3.25
2022-09-20T07:11:07.333Z,-3.23
2022-09-20T07:12:07.373Z,-3.21
2022-09-20T07:13:07.359Z,-3.19
2022-09-20T07:14:12.389Z,-3.17
2022-09-20T07:15:12.431Z,-3.16
2022-09-20T07:16:12.463Z,-3.17
2022-09-20T07:17:12.452Z,-3.10
2022-09-20T07:18:12.457Z,-3.13
2022-09-20T07:19:12.495Z,-3.11
2022-09-20T07:20:12.490Z,-3.07
2022-09-20T07:21:12.515Z,-3.04
2022-09-20T07:22:12.506Z,-3.05
2022-09-20T07:23:12.573Z,-3.03
2022-09-20T07:24:12.574Z,-3.01
2022-09-20T07:25:12.583Z,-2.98
2022-09-20T07:26:12.571Z,-2.94
2022-09-20T07:27:12.603Z,-2.95
2022-09-20T07:28:12.608Z,-2.94
2022-09-20T07:29:12.754Z,-2.94
2022-09-20T07:30:12.641Z,-2.94
2022-09-20T07:31:12.655Z,-2.92
2022-09-20T07:32:12.664Z,-2.92
2022-09-20T07:33:12.694Z,-2.91
2022-09-20T07:34:12.724Z,-2.88
2022-09-20T07:35:12.783Z,-2.87
2022-09-20T07:36:12.733Z,-2.88
2022-09-20T07:37:12.821Z,-2.87
2022-09-20T07:38:12.774Z,-2.86
2022-09-20T07:39:12.812Z,-2.83
2022-09-20T07:40:12.964Z,-2.83
2022-09-20T07:41:12.836Z,-2.82
2022-09-20T07:42:12.839Z,-2.80
2022-09-20T07:43:12.850Z,-2.76
2022-09-20T07:46:07.036Z,-2.74
2022-09-20T07:47:06.928Z,-2.72
2022-09-20T07:48:06.922Z,-2.69
2022-09-20T07:49:07.008Z,-2.67
2022-09-20T07:50:06.978Z,-2.63
2022-09-20T07:51:08.984Z,-2.59
2022-09-20T07:52:06.987Z,-2.54
2022-09-20T07:53:07.053Z,-2.51
2022-09-20T07:54:07.045Z,-2.49
2022-09-20T07:55:07.075Z,-2.46
2022-09-20T07:56:07.051Z,-2.44
2022-09-20T07:57:07.114Z,-2.39
2022-09-20T07:58:07.083Z,-2.36
2022-09-20T07:59:07.248Z,-2.35
2022-09-20T08:00:07.136Z,-2.34
2022-09-20T08:01:07.194Z,-2.32
2022-09-20T08:02:07.234Z,-2.32
2022-09-20T08:03:07.230Z,-2.28
2022-09-20T08:04:07.201Z,-2.26
2022-09-20T08:05:07.243Z,-2.27
2022-09-20T08:06:07.240Z,-2.26
2022-09-20T08:07:07.304Z,-2.24
2022-09-20T08:08:07.269Z,-2.24
2022-09-20T08:09:10.957Z,-2.22
2022-09-20T08:10:07.308Z,-2.15
2022-09-20T08:11:07.351Z,-2.09
2022-09-20T08:14:08.306Z,-2.00
2022-09-20T08:15:11.629Z,-2.01
2022-09-20T08:16:07.454Z,-1.98
2022-09-20T08:17:07.502Z,-1.95
2022-09-20T08:18:07.532Z,-1.92
2022-09-20T08:19:07.591Z,-1.90
2022-09-20T08:20:07.571Z,-1.88
2022-09-20T08:21:07.630Z,-1.85
2022-09-20T08:22:07.637Z,-1.80
2022-09-20T08:23:22.896Z,-1.77
2022-09-20T08:24:07.700Z,-1.73
2022-09-20T08:25:07.740Z,-1.70
2022-09-20T08:26:07.855Z,-1.64
2022-09-20T08:27:07.800Z,-1.64
2022-09-20T08:28:07.930Z,-1.61
2022-09-20T08:29:08.121Z,-1.57
2022-09-20T08:30:07.880Z,-1.56
2022-09-20T08:31:11.827Z,-1.55
2022-09-20T08:32:11.946Z,-1.51
2022-09-20T08:33:12.110Z,-1.49
2022-09-20T08:34:12.020Z,-1.48
2022-09-20T08:35:12.041Z,-1.48
2022-09-20T08:36:12.122Z,-1.45
2022-09-20T08:37:12.115Z,-1.43
2022-09-20T08:40:12.329Z,-1.39
2022-09-20T08:41:12.264Z,-1.35
2022-09-20T08:42:12.343Z,-1.32
2022-09-20T08:43:12.377Z,-1.30
2022-09-20T08:44:12.396Z,-1.28
2022-09-20T08:45:21.864Z,-1.27
2022-09-20T08:46:12.524Z,-1.27
2022-09-20T08:47:12.497Z,-1.29
2022-09-20T08:48:14.356Z,-1.30
2022-09-20T08:49:12.638Z,-1.30
2022-09-20T08:50:18.078Z,-1.31
2022-09-20T08:51:22.578Z,-1.30
2022-09-20T08:52:17.673Z,-1.29
2022-09-20T08:53:22.731Z,-1.28
2022-09-20T08:54:22.753Z,-1.27
2022-09-20T08:55:22.770Z,-1.26
2022-09-20T08:56:22.796Z,-1.24
2022-09-20T08:57:22.819Z,-1.20
2022-09-20T08:58:22.984Z,-1.17
2022-09-20T08:59:22.917Z,-1.18
2022-09-20T09:00:22.948Z,-1.14
2022-09-20T09:01:23.062Z,-1.16
2022-09-20T09:02:23.031Z,-1.17
2022-09-20T09:03:23.044Z,-1.19
2022-09-20T09:04:28.955Z,-1.18
2022-09-20T09:05:29.087Z,-1.18
2022-09-20T09:06:32.979Z,-1.16
2022-09-20T09:07:33.144Z,-1.15
2022-09-20T09:08:37.655Z,-1.17
2022-09-20T09:09:37.805Z,-1.20
2022-09-20T09:10:33.186Z,-1.23
2022-09-20T09:11:33.241Z,-1.25
2022-09-20T09:12:33.242Z,-1.26
2022-09-20T09:13:33.294Z,-1.27
2022-09-20T09:14:33.278Z,-1.27
2022-09-20T09:15:34.385Z,-1.28
2022-09-20T09:16:35.604Z,-1.30
2022-09-20T09:17:39.279Z,-1.30
2022-09-20T09:18:39.429Z,-1.29
2022-09-20T09:19:39.545Z,-1.31
2022-09-20T09:20:39.487Z,-1.33
2022-09-20T09:21:39.606Z,-1.28
2022-09-20T09:22:39.538Z,-1.26
2022-09-20T09:23:39.576Z,-1.23
2022-09-20T09:24:39.596Z,-1.20
2022-09-20T09:25:39.624Z,-1.17
2022-09-20T09:26:39.742Z,-1.14
2022-09-20T09:27:39.655Z,-1.09
2022-09-20T09:28:39.695Z,-1.04
2022-09-20T09:29:39.763Z,-1.01
2022-09-20T09:30:39.765Z,-0.96
2022-09-20T09:31:40.015Z,-0.95
2022-09-20T09:32:39.835Z,-0.90
2022-09-20T09:33:39.871Z,-0.85
2022-09-20T09:34:39.946Z,-0.82
2022-09-20T09:35:39.937Z,-0.80
2022-09-20T09:36:40.022Z,-0.79
2022-09-20T09:37:40.012Z,-0.76
2022-09-20T09:38:45.945Z,-0.73
2022-09-20T09:39:46.670Z,-0.70
2022-09-20T09:40:46.121Z,-0.67
2022-09-20T09:41:46.266Z,-0.64
2022-09-20T09:42:46.190Z,-0.67
2022-09-20T09:43:46.234Z,-0.68
2022-09-20T09:44:46.247Z,-0.74
2022-09-20T09:45:46.377Z,-0.80
2022-09-20T09:46:46.445Z,-0.87
2022-09-20T09:47:46.383Z,-0.93
2022-09-20T09:48:46.406Z,-1.00
2022-09-20T09:49:46.457Z,-1.04
2022-09-20T09:50:46.508Z,-1.12
2022-09-20T09:51:52.570Z,-1.18
2022-09-20T09:52:52.579Z,-1.20
2022-09-20T09:53:52.611Z,-1.24
2022-09-20T09:54:52.661Z,-1.28
2022-09-20T09:55:52.708Z,-1.29
2022-09-20T09:56:52.762Z,-1.34
2022-09-20T09:57:52.754Z,-1.39
2022-09-20T09:58:52.861Z,-1.40
2022-09-20T09:59:52.848Z,-1.41
2022-09-20T10:00:52.913Z,-1.44
2022-09-20T10:01:52.993Z,-1.47
2022-09-20T10:02:52.900Z,-1.47
2022-09-20T10:03:52.915Z,-1.46
2022-09-20T10:04:52.989Z,-1.47
2022-09-20T10:06:58.084Z,-1.46
2022-09-20T10:07:58.056Z,-1.44
2022-09-20T10:08:58.080Z,-1.45
2022-09-20T10:09:58.123Z,-1.43
2022-09-20T10:10:58.184Z,-1.41
2022-09-20T10:11:58.307Z,-1.36
2022-09-20T10:12:58.206Z,-1.33
2022-09-20T10:14:02.174Z,-1.31
2022-09-20T10:15:02.274Z,-1.27
2022-09-20T10:16:02.301Z,-1.24
2022-09-20T10:17:02.460Z,-1.19
2022-09-20T10:18:02.354Z,-1.20
2022-09-20T10:19:02.407Z,-1.17
2022-09-20T10:20:02.414Z,-1.16
2022-09-20T10:21:02.487Z,-1.12
2022-09-20T10:22:02.599Z,-1.06
2022-09-20T10:23:34.373Z,-1.01
2022-09-20T10:24:04.319Z,-0.97
2022-09-20T10:25:02.602Z,-0.89
2022-09-20T10:26:02.608Z,-0.85
2022-09-20T10:27:02.755Z,-0.79
2022-09-20T10:28:02.760Z,-0.74
2022-09-20T10:29:02.730Z,-0.73
2022-09-20T10:30:02.735Z,-0.74
2022-09-20T10:31:02.902Z,-0.74
2022-09-20T10:32:02.907Z,-0.74
2022-09-20T10:33:02.860Z,-0.70
2022-09-20T10:34:02.869Z,-0.70
2022-09-20T10:35:02.923Z,-0.70
2022-09-20T10:36:02.966Z,-0.68
2022-09-20T10:37:03.151Z,-0.67
2022-09-20T10:38:03.027Z,-0.68
2022-09-20T10:39:03.070Z,-0.66
2022-09-20T10:40:03.155Z,-0.69
2022-09-20T10:41:03.249Z,-0.65
2022-09-20T10:42:03.140Z,-0.68
2022-09-20T10:43:03.198Z,-0.68
2022-09-20T10:44:05.621Z,-0.69
2022-09-20T10:45:03.242Z,-0.71
2022-09-20T10:46:27.976Z,-0.70
2022-09-20T10:47:03.390Z,-0.73
2022-09-20T10:48:03.369Z,-0.73
2022-09-20T10:49:03.386Z,-0.77
2022-09-20T10:50:03.387Z,-0.83
2022-09-20T10:51:03.540Z,-0.87
2022-09-20T10:52:03.448Z,-0.90
2022-09-20T10:53:03.518Z,-0.93
2022-09-20T10:54:03.518Z,-0.93
2022-09-20T10:55:08.470Z,-0.94
2022-09-20T10:56:08.740Z,-0.95
2022-09-20T10:57:13.544Z,-0.95
2022-09-20T10:58:13.840Z,-0.94
2022-09-20T10:59:13.722Z,-0.95
2022-09-20T11:00:13.801Z,-0.94
2022-09-20T11:01:14.022Z,-0.94
2022-09-20T11:02:13.911Z,-0.94
2022-09-20T11:03:13.895Z,-0.93
2022-09-20T11:04:19.833Z,-0.87
2022-09-20T11:05:19.962Z,-0.85
2022-09-20T11:06:19.987Z,-0.84
2022-09-20T11:07:20.043Z,-0.81
2022-09-20T11:08:20.091Z,-0.80
2022-09-20T11:09:20.143Z,-0.77
2022-09-20T11:10:20.167Z,-0.76
2022-09-20T11:11:20.259Z,-0.74
2022-09-20T11:12:20.244Z,-0.72
2022-09-20T11:13:20.469Z,-0.69
2022-09-20T11:14:20.327Z,-0.68
2022-09-20T11:15:25.279Z,-0.70
2022-09-20T11:16:25.424Z,-0.70
2022-09-20T11:17:25.421Z,-0.71
2022-09-20T11:18:25.599Z,-0.72
2022-09-20T11:19:25.497Z,-0.72
2022-09-20T11:20:25.608Z,-0.72
2022-09-20T11:21:25.614Z,-0.73
2022-09-20T11:22:25.647Z,-0.74
2022-09-20T11:23:25.794Z,-0.74
2022-09-20T11:24:25.758Z,-0.73
2022-09-20T11:25:29.441Z,-0.73
2022-09-20T11:26:25.863Z,-0.73
2022-09-20T11:27:25.870Z,-0.69
2022-09-20T11:28:26.074Z,-0.67
2022-09-20T11:29:25.962Z,-0.64
2022-09-20T11:30:26.021Z,-0.59
2022-09-20T11:31:26.217Z,-0.55
2022-09-20T11:32:26.129Z,-0.46
2022-09-20T11:33:26.260Z,-0.41
2022-09-20T11:34:26.223Z,-0.36
2022-09-20T11:35:26.285Z,-0.30
2022-09-20T11:36:26.310Z,-0.24
2022-09-20T11:37:26.327Z,-0.14
2022-09-20T11:38:26.511Z,-0.09
2022-09-20T11:39:26.432Z,-0.02
2022-09-20T11:40:26.572Z,0.03
2022-09-20T11:41:26.564Z,0.08
2022-09-20T11:42:26.643Z,0.09
2022-09-20T11:43:26.807Z,0.13
2022-09-20T11:44:31.635Z,0.15
2022-09-20T11:45:31.798Z,0.13
2022-09-20T11:46:31.789Z,0.12
2022-09-20T11:47:53.391Z,0.09
2022-09-20T11:48:31.865Z,0.08
2022-09-20T11:49:31.914Z,0.03
2022-09-20T11:50:31.924Z,-0.00
2022-09-20T11:51:32.070Z,-0.03
2022-09-20T11:52:32.040Z,-0.11
2022-09-20T11:53:35.894Z,-0.12
2022-09-20T11:54:32.115Z,-0.17
2022-09-20T11:55:32.632Z,-0.20
2022-09-20T11:56:32.231Z,-0.21
2022-09-20T11:57:32.245Z,-0.25
2022-09-20T11:58:32.370Z,-0.26
2022-09-20T11:59:32.315Z,-0.25
2022-09-20T12:00:32.340Z,-0.27
2022-09-20T12:01:32.548Z,-0.26
2022-09-20T12:02:32.581Z,-0.25
2022-09-20T12:03:32.686Z,-0.25
2022-09-20T12:04:33.705Z,-0.24
2022-09-20T12:05:32.584Z,-0.26
2022-09-20T12:06:32.593Z,-0.23
2022-09-20T12:07:32.658Z,-0.24
2022-09-20T12:08:32.701Z,-0.23
2022-09-20T12:11:26.790Z,-0.20
2022-09-20T12:12:27.436Z,-0.12
2022-09-20T12:13:26.909Z,-0.10
2022-09-20T12:14:26.962Z,-0.07
2022-09-20T12:15:26.989Z,-0.03
2022-09-20T12:16:27.094Z,0.02
2022-09-20T12:17:27.049Z,0.07
2022-09-20T12:18:27.082Z,0.12
2022-09-20T12:19:27.225Z,0.15
2022-09-20T12:20:27.158Z,0.19
2022-09-20T12:21:27.192Z,0.22
2022-09-20T12:22:27.216Z,0.25
2022-09-20T12:23:27.385Z,0.29
2022-09-20T12:24:27.412Z,0.29
2022-09-20T12:25:27.334Z,0.32
2022-09-20T12:26:27.359Z,0.33
2022-09-20T12:27:27.425Z,0.37
2022-09-20T12:28:27.443Z,0.37
2022-09-20T12:29:27.532Z,0.42
2022-09-20T12:30:27.536Z,0.46
2022-09-20T12:31:27.620Z,0.48
2022-09-20T12:32:27.614Z,0.49
2022-09-20T12:33:27.706Z,0.50
2022-09-20T12:34:27.706Z,0.54
2022-09-20T12:35:27.802Z,0.60
2022-09-20T12:36:27.787Z,0.59
2022-09-20T12:37:27.851Z,0.60
2022-09-20T12:38:27.880Z,0.61
2022-09-20T12:39:33.894Z,0.63
2022-09-20T12:40:34.070Z,0.63
2022-09-20T12:41:34.024Z,0.64
2022-09-20T12:42:34.094Z,0.63
2022-09-20T12:43:34.254Z,0.59
2022-09-20T12:44:34.213Z,0.58
2022-09-20T12:45:34.732Z,0.55
2022-09-20T12:46:34.303Z,0.49
2022-09-20T12:47:34.320Z,0.45
2022-09-20T12:48:34.401Z,0.39
2022-09-20T12:49:34.448Z,0.31
2022-09-20T12:50:34.489Z,0.23
2022-09-20T12:51:34.514Z,0.17
2022-09-20T12:52:34.597Z,0.16
2022-09-20T12:53:34.732Z,0.10
2022-09-20T12:54:34.814Z,0.05
2022-09-20T12:55:34.715Z,0.01
2022-09-20T12:56:34.808Z,-0.01
2022-09-20T12:57:34.806Z,-0.07
2022-09-20T12:58:34.876Z,-0.08
2022-09-20T12:59:34.930Z,-0.12
2022-09-20T13:00:35.045Z,-0.15
2022-09-20T13:01:34.995Z,-0.16
2022-09-20T13:02:35.061Z,-0.17
2022-09-20T13:03:35.231Z,-0.17
2022-09-20T13:04:35.275Z,-0.17
2022-09-20T13:05:35.172Z,-0.17
2022-09-20T13:06:35.228Z,-0.16
2022-09-20T13:07:37.088Z,-0.15